createdAt,value
2022-10-22T00:00:53.394Z,1.77
2022-10-22T00:03:21.451Z,1.83
2022-10-22T00:05:49.012Z,1.45
2022-10-22T00:08:16.975Z,1.73
2022-10-22T00:10:44.479Z,1.80
2022-10-22T00:13:12.549Z,1.58
2022-10-22T00:15:39.975Z,2.20
2022-10-22T00:18:08.270Z,2.00
2022-10-22T00:20:36.240Z,2.92
2022-10-22T00:23:03.895Z,1.52
2022-10-22T00:25:32.073Z,1.48
2022-10-22T00:27:59.565Z,1.92
2022-10-22T00:30:27.469Z,2.10
2022-10-22T00:32:55.387Z,1.92
2022-10-22T00:35:23.262Z,1.83
2022-10-22T00:37:51.254Z,2.45
2022-10-22T00:40:19.081Z,1.83
2022-10-22T00:42:46.966Z,1.98
2022-10-22T00:45:24.806Z,1.88
2022-10-22T00:48:09.218Z,2.20
2022-10-22T00:50:41.495Z,2.35
2022-10-22T00:53:11.478Z,2.60
2022-10-22T00:55:40.210Z,2.45
2022-10-22T00:58:08.303Z,3.03
2022-10-22T01:00:36.647Z,2.17
2022-10-22T01:03:04.673Z,2.30
2022-10-22T01:05:54.150Z,2.65
2022-10-22T01:08:44.100Z,3.40
2022-10-22T01:11:32.859Z,2.72
2022-10-22T01:14:13.230Z,2.42
2022-10-22T01:17:08.379Z,2.47
2022-10-22T01:19:42.715Z,1.90
2022-10-22T01:22:30.627Z,3.47
2022-10-22T01:25:16.460Z,2.80
2022-10-22T01:27:53.974Z,3.00
2022-10-22T01:30:22.574Z,3.10
2022-10-22T01:32:52.069Z,2.90
2022-10-22T01:35:28.886Z,2.95
2022-10-22T01:38:00.447Z,3.10
2022-10-22T01:40:29.945Z,3.47
2022-10-22T01:43:02.836Z,3.58
2022-10-22T01:45:36.467Z,3.97
2022-10-22T01:48:14.966Z,3.90
2022-10-22T01:50:43.079Z,3.78
2022-10-22T01:53:37.930Z,4.07
2022-10-22T01:56:16.731Z,3.20
2022-10-22T01:58:44.306Z,3.60
2022-10-22T02:01:30.965Z,3.55
2022-10-22T02:04:19.637Z,3.60
2022-10-22T02:06:51.098Z,4.00
2022-10-22T02:09:21.758Z,3.25
2022-10-22T02:11:50.501Z,3.13
2022-10-22T02:14:19.686Z,3.35
2022-10-22T02:16:49.819Z,3.85
2022-10-22T02:19:26.881Z,2.78
2022-10-22T02:21:55.235Z,4.35
2022-10-22T02:24:23.446Z,3.17
2022-10-22T02:27:08.682Z,2.85
2022-10-22T02:30:10.130Z,3.65
2022-10-22T02:32:52.167Z,2.95
2022-10-22T02:35:22.947Z,3.03
2022-10-22T02:37:51.938Z,2.63
2022-10-22T02:40:20.210Z,2.83
2022-10-22T02:42:49.021Z,2.60
2022-10-22T02:45:18.591Z,3.08
2022-10-22T02:47:47.197Z,3.20
2022-10-22T02:50:15.222Z,2.58
2022-10-22T02:52:43.305Z,2.78
2022-10-22T02:55:11.001Z,2.90
2022-10-22T02:57:39.134Z,2.15
2022-10-22T03:00:08.966Z,2.95
2022-10-22T03:02:36.886Z,2.63
2022-10-22T03:05:05.059Z,2.00
2022-10-22T03:07:32.861Z,2.03
2022-10-22T03:10:00.353Z,1.30
2022-10-22T03:12:27.844Z,1.20
2022-10-22T03:14:55.315Z,1.10
2022-10-22T03:17:23.226Z,1.15
2022-10-22T03:19:51.108Z,1.38
2022-10-22T03:22:32.526Z,1.40
2022-10-22T03:25:03.841Z,2.60
2022-10-22T03:27:31.322Z,1.48
2022-10-22T03:29:59.573Z,1.13
2022-10-22T03:32:26.969Z,0.80
2022-10-22T03:34:54.949Z,1.33
2022-10-22T03:37:24.927Z,1.23
2022-10-22T03:39:54.092Z,3.08
2022-10-22T03:42:22.489Z,1.55
2022-10-22T03:44:50.459Z,2.03
2022-10-22T03:47:18.105Z,1.52
2022-10-22T03:49:45.618Z,1.48
2022-10-22T03:52:14.563Z,1.67
2022-10-22T03:54:42.540Z,1.83
2022-10-22T03:57:10.937Z,2.50
2022-10-22T03:59:40.553Z,2.30
2022-10-22T04:02:08.535Z,2.67
2022-10-22T04:04:37.103Z,1.73
2022-10-22T04:07:06.668Z,2.13
2022-10-22T04:09:35.027Z,2.20
2022-10-22T04:12:02.832Z,1.90
2022-10-22T04:14:30.670Z,1.40
2022-10-22T04:16:58.094Z,2.60
2022-10-22T04:19:25.647Z,1.90
2022-10-22T04:21:53.159Z,2.47
2022-10-22T04:24:21.086Z,2.50
2022-10-22T04:26:48.881Z,2.22
2022-10-22T04:29:16.717Z,2.25
2022-10-22T04:31:44.523Z,1.90
2022-10-22T04:34:12.011Z,1.85
2022-10-22T04:36:39.565Z,2.60
2022-10-22T04:39:07.565Z,2.33
2022-10-22T04:41:38.198Z,1.67
2022-10-22T04:44:07.596Z,1.77
2022-10-22T04:46:37.186Z,2.45
2022-10-22T04:49:05.175Z,2.20
2022-10-22T04:51:33.450Z,2.55
2022-10-22T04:54:01.053Z,2.88
2022-10-22T04:56:30.589Z,2.95
2022-10-22T04:59:03.108Z,2.50
2022-10-22T05:01:36.947Z,2.60
2022-10-22T05:04:09.202Z,2.05
2022-10-22T05:06:37.478Z,2.40
2022-10-22T05:09:07.391Z,2.65
2022-10-22T05:11:37.046Z,3.25
2022-10-22T05:14:06.311Z,3.25
2022-10-22T05:16:34.719Z,2.30
2022-10-22T05:19:03.508Z,1.92
2022-10-22T05:21:31.510Z,2.85
2022-10-22T05:24:02.142Z,2.65
2022-10-22T05:26:29.993Z,2.87
2022-10-22T05:28:57.568Z,2.95
2022-10-22T05:31:25.138Z,3.78
2022-10-22T05:33:53.078Z,2.85
2022-10-22T05:36:22.476Z,1.95
2022-10-22T05:38:50.726Z,2.53
2022-10-22T05:41:20.865Z,2.67
2022-10-22T05:43:48.917Z,1.90
2022-10-22T05:46:22.896Z,2.42
2022-10-22T05:49:01.175Z,3.33
2022-10-22T05:51:30.839Z,2.78
2022-10-22T05:54:02.695Z,2.75
2022-10-22T05:56:32.180Z,2.25
2022-10-22T05:59:00.884Z,3.03
2022-10-22T06:01:31.323Z,3.28
2022-10-22T06:04:00.947Z,2.42
2022-10-22T06:06:30.969Z,2.63
2022-10-22T06:09:01.978Z,3.13
2022-10-22T06:11:32.535Z,2.63
2022-10-22T06:14:03.271Z,2.90
2022-10-22T06:16:31.617Z,3.40
2022-10-22T06:19:03.500Z,3.50
2022-10-22T06:21:32.647Z,2.60
2022-10-22T06:24:01.951Z,2.67
2022-10-22T06:26:29.613Z,2.83
2022-10-22T06:28:57.670Z,3.28
2022-10-22T06:31:26.391Z,3.13
2022-10-22T06:33:54.013Z,2.28
2022-10-22T06:36:23.284Z,3.03
2022-10-22T06:38:55.031Z,4.05
2022-10-22T06:41:25.777Z,2.92
2022-10-22T06:43:58.017Z,2.63
2022-10-22T06:46:27.060Z,2.53
2022-10-22T06:48:58.737Z,3.33
2022-10-22T06:53:55.090Z,3.03
2022-10-22T06:56:23.722Z,2.42
2022-10-22T06:58:52.877Z,2.50
2022-10-22T07:01:23.520Z,2.60
2022-10-22T07:03:52.334Z,3.03
2022-10-22T07:06:20.641Z,2.78
2022-10-22T07:08:48.508Z,2.80
2022-10-22T07:11:19.065Z,3.28
2022-10-22T07:13:47.277Z,2.22
2022-10-22T07:16:15.351Z,3.58
2022-10-22T07:18:43.688Z,3.63
2022-10-22T07:21:12.585Z,2.88
2022-10-22T07:23:40.282Z,2.90
2022-10-22T07:26:08.681Z,2.75
2022-10-22T07:28:39.789Z,3.40
2022-10-22T07:31:09.010Z,3.05
2022-10-22T07:33:37.199Z,3.35
2022-10-22T07:36:07.576Z,4.45
2022-10-22T07:38:35.717Z,4.15
2022-10-22T07:41:03.858Z,3.97
2022-10-22T07:43:31.333Z,3.33
2022-10-22T07:46:00.391Z,2.80
2022-10-22T07:48:28.201Z,2.60
2022-10-22T07:50:55.978Z,2.65
2022-10-22T07:53:23.592Z,3.17
2022-10-22T07:55:52.094Z,2.55
2022-10-22T07:58:20.498Z,2.45
2022-10-22T08:00:49.605Z,2.50
2022-10-22T08:03:18.526Z,2.53
2022-10-22T08:05:46.489Z,2.28
2022-10-22T08:08:15.206Z,2.38
2022-10-22T08:10:43.271Z,2.80
2022-10-22T08:13:11.202Z,2.65
2022-10-22T08:15:39.210Z,2.45
2022-10-22T08:18:07.163Z,2.70
2022-10-22T08:20:35.001Z,3.05
2022-10-22T08:23:02.825Z,2.60
2022-10-22T08:25:31.002Z,3.10
2022-10-22T08:27:58.872Z,2.58
2022-10-22T08:30:27.835Z,2.85
2022-10-22T08:32:55.815Z,2.10
2022-10-22T08:35:23.838Z,2.75
2022-10-22T08:37:51.310Z,2.65
2022-10-22T08:40:50.188Z,2.50
2022-10-22T08:43:36.885Z,2.70
2022-10-22T08:46:31.396Z,2.42
2022-10-22T08:49:01.768Z,2.45
2022-10-22T08:51:35.858Z,2.42
2022-10-22T08:54:07.054Z,2.40
2022-10-22T08:56:37.228Z,2.50
2022-10-22T08:59:09.563Z,3.35
2022-10-22T09:01:45.630Z,3.63
2022-10-22T09:04:33.537Z,2.88
2022-10-22T09:07:01.495Z,2.35
2022-10-22T09:09:39.147Z,3.25
2022-10-22T09:12:08.625Z,2.72
2022-10-22T09:14:36.803Z,2.50
2022-10-22T09:17:04.955Z,2.67
2022-10-22T09:19:39.030Z,3.08
2022-10-22T09:22:20.588Z,3.72
2022-10-22T09:27:30.296Z,2.58
2022-10-22T09:29:58.239Z,2.13
2022-10-22T09:32:26.227Z,3.75
2022-10-22T09:34:58.092Z,3.80
2022-10-22T09:37:28.364Z,3.10
2022-10-22T09:39:58.881Z,2.75
2022-10-22T09:42:26.793Z,2.90
2022-10-22T09:44:59.788Z,3.17
2022-10-22T09:47:43.570Z,2.50
2022-10-22T09:50:38.897Z,3.42
2022-10-22T09:53:18.926Z,2.88
2022-10-22T09:58:23.656Z,2.35
2022-10-22T10:00:59.467Z,3.03
2022-10-22T10:03:31.205Z,2.45
2022-10-22T10:06:04.756Z,2.45
2022-10-22T10:08:34.092Z,2.75
2022-10-22T10:11:49.188Z,2.88
2022-10-22T10:14:40.363Z,3.10
2022-10-22T10:17:10.690Z,2.75
2022-10-22T10:20:01.369Z,2.40
2022-10-22T10:22:52.182Z,2.17
2022-10-22T10:25:45.766Z,2.22
2022-10-22T10:28:23.758Z,3.40
2022-10-22T10:31:06.921Z,2.50
2022-10-22T10:33:48.557Z,3.67
2022-10-22T10:38:49.251Z,1.92
2022-10-22T10:41:28.061Z,2.55
2022-10-22T10:44:16.827Z,3.30
2022-10-22T10:46:47.299Z,2.25
2022-10-22T10:49:25.635Z,2.05
2022-10-22T10:52:20.466Z,2.22
2022-10-22T10:55:08.640Z,2.97
2022-10-22T10:57:53.965Z,2.85
2022-10-22T11:00:22.954Z,2.38
2022-10-22T11:03:09.418Z,2.78
2022-10-22T11:05:51.852Z,2.88
2022-10-22T11:08:22.062Z,1.75
2022-10-22T11:10:55.745Z,2.60
2022-10-22T11:13:23.706Z,1.83
2022-10-22T11:15:56.121Z,2.58
2022-10-22T11:18:39.151Z,1.92
2022-10-22T11:21:34.203Z,2.03
2022-10-22T11:24:11.114Z,2.40
2022-10-22T11:27:01.950Z,2.67
2022-10-22T11:29:35.267Z,2.07
2022-10-22T11:32:03.702Z,1.33
2022-10-22T11:34:36.305Z,2.30
2022-10-22T11:37:04.874Z,2.17
2022-10-22T11:39:41.022Z,2.00
2022-10-22T11:42:37.163Z,2.80
2022-10-22T11:45:06.906Z,2.40
2022-10-22T11:47:53.139Z,1.90
2022-10-22T11:50:26.043Z,2.17
2022-10-22T11:53:07.834Z,1.90
2022-10-22T11:55:50.587Z,2.15
2022-10-22T11:58:29.591Z,2.47
2022-10-22T12:01:09.206Z,2.40
2022-10-22T12:03:42.866Z,2.17
2022-10-22T12:06:15.712Z,2.40
2022-10-22T12:08:46.591Z,2.20
2022-10-22T12:11:34.433Z,3.15
2022-10-22T12:14:14.323Z,3.17
2022-10-22T12:17:01.729Z,2.58
2022-10-22T12:19:39.801Z,2.38
2022-10-22T12:22:10.800Z,2.45
2022-10-22T12:24:41.367Z,2.83
2022-10-22T12:27:22.598Z,2.63
2022-10-22T12:29:56.511Z,1.92
2022-10-22T12:32:29.228Z,2.60
2022-10-22T12:34:57.189Z,2.30
2022-10-22T12:37:24.966Z,2.53
2022-10-22T12:39:52.773Z,2.72
2022-10-22T12:42:21.960Z,3.05
2022-10-22T12:44:55.573Z,2.22
2022-10-22T12:47:23.590Z,2.35
2022-10-22T12:49:51.475Z,2.55
2022-10-22T12:52:22.215Z,2.45
2022-10-22T12:54:55.072Z,3.28
2022-10-22T12:57:24.741Z,2.60
2022-10-22T12:59:52.542Z,2.03
2022-10-22T13:02:24.843Z,2.55
2022-10-22T13:05:23.243Z,2.72
2022-10-22T13:08:05.525Z,2.75
2022-10-22T13:10:35.846Z,4.65
2022-10-22T13:13:06.343Z,3.00
2022-10-22T13:15:34.621Z,2.25
2022-10-22T13:18:33.015Z,3.00
2022-10-22T13:21:03.185Z,2.60
2022-10-22T13:23:33.265Z,2.70
2022-10-22T13:26:23.134Z,2.60
2022-10-22T13:28:56.204Z,2.90
2022-10-22T13:31:37.803Z,2.88
2022-10-22T13:36:41.471Z,2.72
2022-10-22T13:39:13.819Z,2.63
2022-10-22T13:41:41.633Z,2.50
2022-10-22T13:44:09.048Z,2.28
2022-10-22T13:46:42.915Z,2.33
2022-10-22T13:49:16.718Z,2.22
2022-10-22T13:51:44.934Z,2.20
2022-10-22T13:54:21.568Z,2.20
2022-10-22T13:56:49.211Z,2.28
2022-10-22T13:59:19.776Z,1.77
2022-10-22T14:01:55.849Z,2.13
2022-10-22T14:04:23.406Z,2.00
2022-10-22T14:06:50.920Z,1.50
2022-10-22T14:09:19.302Z,2.10
2022-10-22T14:11:47.154Z,2.55
2022-10-22T14:14:17.323Z,1.73
2022-10-22T14:16:44.993Z,1.40
2022-10-22T14:19:16.789Z,2.08
2022-10-22T14:21:44.538Z,1.10
2022-10-22T14:24:13.384Z,2.22
2022-10-22T14:26:41.623Z,1.73
2022-10-22T14:29:10.672Z,2.00
2022-10-22T14:34:15.104Z,2.05
2022-10-22T14:36:46.113Z,1.50
2022-10-22T14:39:14.096Z,1.80
2022-10-22T14:41:41.828Z,2.03
2022-10-22T14:44:13.904Z,2.03
2022-10-22T14:46:43.985Z,2.10
2022-10-22T14:49:11.632Z,2.20
2022-10-22T14:51:39.251Z,2.25
2022-10-22T14:54:07.214Z,1.83
2022-10-22T14:56:38.591Z,2.15
2022-10-22T15:01:33.655Z,2.20
2022-10-22T15:04:01.196Z,1.80
2022-10-22T15:06:29.175Z,2.50
2022-10-22T15:08:56.991Z,1.88
2022-10-22T15:11:25.003Z,2.50
2022-10-22T15:13:52.687Z,2.10
2022-10-22T15:16:20.334Z,2.15
2022-10-22T15:18:48.364Z,2.47
2022-10-22T15:21:18.372Z,3.15
2022-10-22T15:23:45.947Z,2.55
2022-10-22T15:26:14.270Z,4.07
2022-10-22T15:28:42.876Z,2.55
2022-10-22T15:31:14.294Z,3.45
2022-10-22T15:36:14.605Z,2.17
2022-10-22T15:38:42.353Z,1.98
2022-10-22T15:41:12.677Z,2.20
2022-10-22T15:43:40.256Z,2.40
2022-10-22T15:46:12.023Z,2.90
2022-10-22T15:48:39.815Z,2.65
2022-10-22T15:51:12.973Z,2.35
2022-10-22T15:53:41.212Z,2.17
2022-10-22T15:56:11.651Z,2.60
2022-10-22T15:58:39.238Z,2.65
2022-10-22T16:01:09.090Z,2.70
2022-10-22T16:03:37.249Z,2.42
2022-10-22T16:06:05.372Z,2.10
2022-10-22T16:08:33.321Z,2.65
2022-10-22T16:11:01.262Z,2.63
2022-10-22T16:13:29.295Z,2.85
2022-10-22T16:15:57.125Z,3.65
2022-10-22T16:18:24.960Z,2.20
2022-10-22T16:20:52.815Z,2.90
2022-10-22T16:23:20.954Z,2.75
2022-10-22T16:25:48.819Z,2.58
2022-10-22T16:28:16.504Z,3.10
2022-10-22T16:30:44.794Z,2.92
2022-10-22T16:33:12.971Z,2.47
2022-10-22T16:35:41.663Z,2.60
2022-10-22T16:38:10.679Z,3.35
2022-10-22T16:40:38.939Z,3.15
2022-10-22T16:43:06.856Z,2.83
2022-10-22T16:45:34.694Z,2.80
2022-10-22T16:48:02.671Z,2.60
2022-10-22T16:50:30.458Z,2.67
2022-10-22T16:52:57.890Z,2.55
2022-10-22T16:55:25.439Z,3.30
2022-10-22T16:57:53.534Z,3.35
2022-10-22T17:00:21.452Z,3.55
2022-10-22T17:02:53.971Z,2.92
2022-10-22T17:05:21.803Z,4.22
2022-10-22T17:07:49.869Z,2.80
2022-10-22T17:10:19.648Z,3.95
2022-10-22T17:12:48.026Z,3.88
2022-10-22T17:15:15.887Z,3.50
2022-10-22T17:17:48.283Z,2.90
2022-10-22T17:20:16.259Z,4.18
2022-10-22T17:22:43.867Z,4.22
2022-10-22T17:25:17.481Z,4.22
2022-10-22T17:27:45.810Z,4.57
2022-10-22T17:30:16.567Z,4.20
2022-10-22T17:32:44.844Z,5.60
2022-10-22T17:35:12.771Z,4.88
2022-10-22T17:37:40.913Z,5.03
2022-10-22T17:40:09.245Z,4.70
2022-10-22T17:42:37.242Z,4.97
2022-10-22T17:45:05.305Z,4.72
2022-10-22T17:47:33.182Z,5.60
2022-10-22T17:50:00.974Z,4.25
2022-10-22T17:52:28.859Z,4.70
2022-10-22T17:54:56.622Z,4.35
2022-10-22T17:57:24.158Z,4.65
2022-10-22T17:59:52.127Z,5.05
2022-10-22T18:02:19.583Z,5.80
2022-10-22T18:04:51.166Z,6.35
2022-10-22T18:07:20.710Z,6.60
2022-10-22T18:09:48.780Z,4.65
2022-10-22T18:12:18.103Z,4.22
2022-10-22T18:14:47.098Z,4.13
2022-10-22T18:19:49.471Z,5.60
2022-10-22T18:22:17.139Z,5.05
2022-10-22T18:24:45.140Z,5.03
2022-10-22T18:27:12.928Z,5.05
2022-10-22T18:29:41.032Z,5.25
2022-10-22T18:32:12.976Z,4.88
2022-10-22T18:34:41.333Z,4.50
2022-10-22T18:37:09.288Z,4.65
2022-10-22T18:39:37.326Z,5.00
2022-10-22T18:42:07.260Z,4.57
2022-10-22T18:44:35.829Z,4.95
2022-10-22T18:47:03.513Z,4.97
2022-10-22T18:49:31.029Z,5.85
2022-10-22T18:51:58.996Z,6.07
2022-10-22T18:54:26.636Z,5.53
2022-10-22T18:57:00.523Z,5.70
2022-10-22T18:59:31.214Z,7.00
2022-10-22T19:01:59.725Z,6.25
2022-10-22T19:04:33.217Z,6.32
2022-10-22T19:07:01.206Z,6.10
2022-10-22T19:09:29.189Z,5.45
2022-10-22T19:11:57.163Z,4.80
2022-10-22T19:14:25.146Z,6.57
2022-10-22T19:16:53.414Z,6.20
2022-10-22T19:19:22.375Z,6.72
2022-10-22T19:21:50.334Z,6.35
2022-10-22T19:24:19.515Z,5.82
2022-10-22T19:26:48.329Z,5.88
2022-10-22T19:29:16.986Z,6.82
2022-10-22T19:31:45.888Z,6.00
2022-10-22T19:34:14.200Z,5.82
2022-10-22T19:36:41.786Z,6.82
2022-10-22T19:39:09.371Z,6.07
2022-10-22T19:41:37.342Z,6.20
2022-10-22T19:44:05.226Z,7.07
2022-10-22T19:46:33.098Z,8.43
2022-10-22T19:49:03.433Z,7.53
2022-10-22T19:51:33.895Z,10.30
2022-10-22T19:54:07.109Z,9.35
2022-10-22T19:56:36.187Z,8.73
2022-10-22T19:59:04.938Z,8.77
2022-10-22T20:01:32.666Z,7.82
2022-10-22T20:04:01.488Z,7.50
2022-10-22T20:06:29.693Z,6.65
2022-10-22T20:08:58.229Z,7.80
2022-10-22T20:11:28.347Z,7.63
2022-10-22T20:13:56.853Z,7.85
2022-10-22T20:16:28.548Z,7.15
2022-10-22T20:19:00.874Z,8.30
2022-10-22T20:21:29.240Z,6.57
2022-10-22T20:23:57.582Z,7.43
2022-10-22T20:26:28.040Z,7.15
2022-10-22T20:28:56.941Z,8.02
2022-10-22T20:31:27.909Z,7.45
2022-10-22T20:34:01.395Z,7.93
2022-10-22T20:36:30.746Z,8.05
2022-10-22T20:39:07.291Z,8.20
2022-10-22T20:41:37.732Z,7.65
2022-10-22T20:44:05.355Z,8.23
2022-10-22T20:46:33.483Z,7.90
2022-10-22T20:49:04.976Z,7.40
2022-10-22T20:54:00.013Z,7.53
2022-10-22T20:56:28.233Z,10.38
2022-10-22T20:59:04.677Z,7.72
2022-10-22T21:01:49.791Z,7.80
2022-10-22T21:04:19.680Z,9.30
2022-10-22T21:06:48.682Z,9.05
2022-10-22T21:09:17.054Z,9.00
2022-10-22T21:11:45.068Z,8.05
2022-10-22T21:14:14.513Z,8.20
2022-10-22T21:16:47.037Z,7.88
2022-10-22T21:19:14.954Z,7.95
2022-10-22T21:21:43.011Z,7.35
2022-10-22T21:24:10.875Z,7.75
2022-10-22T21:26:39.038Z,7.20
2022-10-22T21:29:07.096Z,6.88
2022-10-22T21:31:34.882Z,7.15
2022-10-22T21:34:02.349Z,7.47
2022-10-22T21:36:29.822Z,7.20
2022-10-22T21:38:57.380Z,6.55
2022-10-22T21:41:25.389Z,6.82
2022-10-22T21:43:53.325Z,7.70
2022-10-22T21:46:22.468Z,7.30
2022-10-22T21:48:57.870Z,7.53
2022-10-22T21:51:25.804Z,7.13
2022-10-22T21:53:53.875Z,6.38
2022-10-22T21:56:22.962Z,6.50
2022-10-22T21:58:51.041Z,6.35
2022-10-22T22:01:19.349Z,6.65
2022-10-22T22:03:49.340Z,7.07
2022-10-22T22:06:21.362Z,7.40
2022-10-22T22:08:52.049Z,7.53
2022-10-22T22:11:24.906Z,8.43
2022-10-22T22:13:54.106Z,6.80
2022-10-22T22:16:28.647Z,6.28
2022-10-22T22:19:01.734Z,6.53
2022-10-22T22:21:29.738Z,5.72
2022-10-22T22:23:58.166Z,6.68
2022-10-22T22:26:29.623Z,6.68
2022-10-22T22:28:59.248Z,5.88
2022-10-22T22:31:32.557Z,5.75
2022-10-22T22:34:02.074Z,7.13
2022-10-22T22:36:33.783Z,5.63
2022-10-22T22:39:01.771Z,6.00
2022-10-22T22:41:29.243Z,6.20
2022-10-22T22:43:57.166Z,6.97
2022-10-22T22:46:25.142Z,6.60
2022-10-22T22:48:52.954Z,5.60
2022-10-22T22:51:20.533Z,4.82
2022-10-22T22:53:48.280Z,5.05
2022-10-22T22:56:17.239Z,5.40
2022-10-22T22:58:45.367Z,5.10
2022-10-22T23:01:28.221Z,4.72
2022-10-22T23:04:19.365Z,4.00
2022-10-22T23:06:47.375Z,4.15
2022-10-22T23:09:16.372Z,3.92
2022-10-22T23:11:44.800Z,4.82
2022-10-22T23:14:15.493Z,3.55
2022-10-22T23:16:46.194Z,3.65
2022-10-22T23:19:16.057Z,4.32
2022-10-22T23:22:01.888Z,3.90
2022-10-22T23:24:30.171Z,4.20
2022-10-22T23:27:00.940Z,4.35
2022-10-22T23:29:33.942Z,5.10
2022-10-22T23:32:04.296Z,5.03
2022-10-22T23:34:32.367Z,6.30
2022-10-22T23:37:00.317Z,5.82
2022-10-22T23:39:28.959Z,5.65
2022-10-22T23:41:57.002Z,6.20
2022-10-22T23:44:25.147Z,7.90
2022-10-22T23:46:52.979Z,6.90
2022-10-22T23:49:20.442Z,6.88
2022-10-22T23:51:47.995Z,6.38
2022-10-22T23:54:18.400Z,5.82
2022-10-22T23:56:46.426Z,6.55
